EZY505T EGKK-LPMA

Flight info

Callsign EZY505T
Flight time 4h 0m
Altitude 37000
Route NOVMA1X NOVMA L620 SAM M195 MARUK N621 LELNA DCT NOVAN DCT DELOG DCT CRISA N864 VULPE N747 MINTA DCT NARTA DCT RAKUN RAKUN1P
Aircraft A20N/M-V/N

Departure

Time 2026-04-11 17:16
Airport London Gatwick Airport (EGKK)

Arrival

Time 2026-04-11 21:16
Airport Cristiano Ronaldo International Airport (LPMA)
Time Latitude Longitude Altitude Speed Heading
2026-04-11 16:30 51.15837 -0.17628 218 ft 0 kts 348°
2026-04-11 16:48 51.15830 -0.17626 215 ft 3 kts 348°
2026-04-11 16:49 51.15812 -0.17620 212 ft 3 kts 348°
2026-04-11 16:49 51.15794 -0.17614 213 ft 3 kts 348°
2026-04-11 16:49 51.15777 -0.17607 218 ft 2 kts 352°
2026-04-11 16:49 51.15760 -0.17611 217 ft 2 kts 31°
2026-04-11 16:50 51.15749 -0.17622 214 ft 0 kts
2026-04-11 16:50 51.15741 -0.17624 213 ft 0 kts 38°
2026-04-11 16:51 51.15739 -0.17625 213 ft 0 kts 44°
2026-04-11 16:52 51.15744 -0.17615 215 ft 1 kts 56°
2026-04-11 16:52 51.15742 -0.17517 220 ft 12 kts 133°
2026-04-11 16:52 51.15669 -0.17480 214 ft 11 kts 168°
2026-04-11 16:52 51.15598 -0.17456 211 ft 10 kts 167°
2026-04-11 16:53 51.15532 -0.17432 215 ft 9 kts 167°
2026-04-11 16:53 51.15471 -0.17411 208 ft 9 kts 168°
2026-04-11 16:53 51.15434 -0.17398 211 ft 0 kts 167°
2026-04-11 16:54 51.15433 -0.17398 211 ft 2 kts 167°
2026-04-11 16:54 51.15428 -0.17396 212 ft 0 kts 167°
2026-04-11 16:55 51.15360 -0.17373 216 ft 22 kts 168°
2026-04-11 16:56 51.15212 -0.17134 210 ft 0 kts 135°
2026-04-11 17:01 51.15198 -0.17083 208 ft 1 kts 82°
2026-04-11 17:01 51.15201 -0.17063 213 ft 0 kts 79°
2026-04-11 17:02 51.15200 -0.17063 213 ft 0 kts 79°
2026-04-11 17:02 51.15201 -0.17063 213 ft 0 kts 79°
2026-04-11 17:03 51.15200 -0.17063 213 ft 0 kts 79°
2026-04-11 17:03 51.15201 -0.17063 213 ft 0 kts 79°
2026-04-11 17:04 51.15200 -0.17063 213 ft 0 kts 79°
2026-04-11 17:04 51.15201 -0.17063 213 ft 0 kts 79°
2026-04-11 17:05 51.15205 -0.17027 211 ft 7 kts 77°
2026-04-11 17:05 51.15209 -0.17000 204 ft 0 kts 77°
2026-04-11 17:06 51.15215 -0.16956 204 ft 0 kts 77°
2026-04-11 17:06 51.15221 -0.16911 208 ft 0 kts 78°
2026-04-11 17:14 51.15215 -0.16830 211 ft 14 kts 120°
2026-04-11 17:14 51.15128 -0.16789 201 ft 8 kts 195°
2026-04-11 17:14 51.15114 -0.16833 204 ft 0 kts 256°
2026-04-11 17:15 51.14945 -0.18041 212 ft 122 kts 257°
2026-04-11 17:16 51.14730 -0.19632 408 ft 154 kts 255°
2026-04-11 17:16 51.14520 -0.21255 1207 ft 152 kts 254°
2026-04-11 17:16 51.14283 -0.22859 2085 ft 143 kts 253°
2026-04-11 17:16 51.14055 -0.24367 2873 ft 143 kts 254°
2026-04-11 17:17 51.13826 -0.26027 3225 ft 164 kts 256°
2026-04-11 17:17 51.13575 -0.27892 3605 ft 180 kts 256°
2026-04-11 17:17 51.13306 -0.29881 4094 ft 189 kts 256°
2026-04-11 17:17 51.13007 -0.32063 4336 ft 214 kts 256°
2026-04-11 17:18 51.12678 -0.34452 4854 ft 226 kts 256°
2026-04-11 17:18 51.12338 -0.36913 5596 ft 229 kts 256°
2026-04-11 17:18 51.11995 -0.39396 6361 ft 232 kts 256°
2026-04-11 17:18 51.11631 -0.41911 6845 ft 234 kts 253°
2026-04-11 17:19 51.11062 -0.44337 6981 ft 235 kts 246°
2026-04-11 17:19 51.10364 -0.46659 6992 ft 236 kts 244°
2026-04-11 17:19 51.09629 -0.49002 6991 ft 236 kts 244°
2026-04-11 17:19 51.08891 -0.51344 6991 ft 237 kts 244°
2026-04-11 17:20 51.08155 -0.53686 7021 ft 237 kts 244°
2026-04-11 17:20 51.07415 -0.56050 7386 ft 240 kts 244°
2026-04-11 17:20 51.06668 -0.58436 8223 ft 241 kts 244°
2026-04-11 17:20 51.05919 -0.60836 9061 ft 244 kts 245°
2026-04-11 17:21 51.05308 -0.63376 9849 ft 248 kts 254°
2026-04-11 17:21 51.05026 -0.65150 10336 ft 251 kts 256°
2026-04-11 17:21 51.04653 -0.67874 11100 ft 253 kts 257°
2026-04-11 17:21 51.04290 -0.70629 11860 ft 256 kts 257°
2026-04-11 17:22 51.03921 -0.73424 12639 ft 260 kts 257°
2026-04-11 17:22 51.03545 -0.76245 13383 ft 264 kts 257°
2026-04-11 17:22 51.03149 -0.79196 13755 ft 281 kts 257°
2026-04-11 17:22 51.02725 -0.82331 14046 ft 299 kts 257°
2026-04-11 17:23 51.02274 -0.85642 14342 ft 315 kts 256°
2026-04-11 17:23 51.01799 -0.89127 14639 ft 330 kts 256°
2026-04-11 17:23 51.01300 -0.92777 14842 ft 346 kts 256°
2026-04-11 17:23 51.00786 -0.96541 14853 ft 350 kts 256°
2026-04-11 17:24 51.00276 -1.00268 14858 ft 350 kts 256°
2026-04-11 17:24 50.99755 -1.04072 15061 ft 354 kts 256°
2026-04-11 17:24 50.99230 -1.07894 15831 ft 354 kts 256°
2026-04-11 17:24 50.98705 -1.11707 16617 ft 353 kts 256°
2026-04-11 17:25 50.98178 -1.15519 17372 ft 354 kts 255°
2026-04-11 17:25 50.97646 -1.19352 18109 ft 355 kts 255°
2026-04-11 17:25 50.97109 -1.23198 18717 ft 357 kts 254°
2026-04-11 17:25 50.96435 -1.26984 19323 ft 357 kts 249°
2026-04-11 17:26 50.95477 -1.30611 19931 ft 356 kts 241°
2026-04-11 17:26 50.94200 -1.33975 20557 ft 356 kts 233°
2026-04-11 17:26 50.92605 -1.36965 21191 ft 356 kts 225°
2026-04-11 17:26 50.90752 -1.39491 21846 ft 357 kts 219°
2026-04-11 17:27 50.88739 -1.41798 22515 ft 357 kts 217°
2026-04-11 17:27 50.86662 -1.43987 23050 ft 359 kts 216°
2026-04-11 17:27 50.84558 -1.46121 23582 ft 359 kts 215°
2026-04-11 17:27 50.82444 -1.48245 24027 ft 361 kts 215°
2026-04-11 17:28 50.80319 -1.50389 24426 ft 363 kts 215°
2026-04-11 17:28 50.78193 -1.52552 24829 ft 364 kts 215°
2026-04-11 17:28 50.76063 -1.54735 25214 ft 366 kts 215°
2026-04-11 17:28 50.73922 -1.56940 25610 ft 368 kts 215°
2026-04-11 17:29 50.71776 -1.59155 25994 ft 369 kts 215°
2026-04-11 17:29 50.69633 -1.61366 26526 ft 367 kts 215°
2026-04-11 17:29 50.67533 -1.63531 27091 ft 363 kts 214°
2026-04-11 17:29 50.65424 -1.65702 27651 ft 360 kts 214°
2026-04-11 17:30 50.63328 -1.67858 28111 ft 358 kts 214°
2026-04-11 17:30 50.61244 -1.69999 28667 ft 355 kts 214°
2026-04-11 17:30 50.59184 -1.72112 29193 ft 352 kts 214°
2026-04-11 17:30 50.57125 -1.74222 29472 ft 355 kts 214°
2026-04-11 17:31 50.55041 -1.76357 29634 ft 360 kts 214°
2026-04-11 17:31 50.52921 -1.78526 29780 ft 364 kts 214°
2026-04-11 17:31 50.50819 -1.80673 30048 ft 366 kts 214°
2026-04-11 17:31 50.48682 -1.82854 30340 ft 366 kts 214°
2026-04-11 17:32 50.46539 -1.85038 30605 ft 367 kts 214°
2026-04-11 17:32 50.44381 -1.87235 30769 ft 372 kts 214°
2026-04-11 17:32 50.42194 -1.89461 30880 ft 376 kts 214°
2026-04-11 17:32 50.39995 -1.91694 31167 ft 375 kts 214°
2026-04-11 17:33 50.37816 -1.93903 31589 ft 371 kts 214°
2026-04-11 17:33 50.35676 -1.96071 31903 ft 370 kts 214°
2026-04-11 17:33 50.33507 -1.98267 32163 ft 371 kts 214°
2026-04-11 17:33 50.31328 -2.00470 32410 ft 371 kts 215°
2026-04-11 17:34 50.29153 -2.02664 32672 ft 372 kts 214°
2026-04-11 17:34 50.26892 -2.04665 32916 ft 374 kts 210°
2026-04-11 17:34 50.24493 -2.06257 33171 ft 377 kts 204°
2026-04-11 17:34 50.21946 -2.07364 33408 ft 383 kts 198°
2026-04-11 17:35 50.19329 -2.07983 33634 ft 387 kts 194°
2026-04-11 17:35 50.16648 -2.08420 33822 ft 388 kts 193°
2026-04-11 17:35 50.13962 -2.08763 34127 ft 386 kts 192°
2026-04-11 17:35 50.11279 -2.09072 34292 ft 387 kts 192°
2026-04-11 17:36 50.08579 -2.09380 34400 ft 389 kts 192°
2026-04-11 17:36 50.05875 -2.09698 34556 ft 389 kts 192°
2026-04-11 17:36 50.03168 -2.10028 34701 ft 390 kts 192°
2026-04-11 17:36 50.00493 -2.10376 34834 ft 390 kts 193°
2026-04-11 17:37 49.97824 -2.11047 34910 ft 386 kts 199°
2026-04-11 17:37 49.92640 -2.13211 35182 ft 383 kts 201°
2026-04-11 17:37 49.90083 -2.14392 35349 ft 383 kts 202°
2026-04-11 17:38 49.87533 -2.15599 35456 ft 384 kts 202°
2026-04-11 17:38 49.84968 -2.16820 35592 ft 385 kts 202°
2026-04-11 17:38 49.82433 -2.18021 35702 ft 386 kts 202°
2026-04-11 17:38 49.79859 -2.19234 35825 ft 387 kts 201°
2026-04-11 17:39 49.77269 -2.20446 35943 ft 388 kts 201°
2026-04-11 17:39 49.74681 -2.21652 36053 ft 389 kts 201°
2026-04-11 17:39 49.72078 -2.22860 36140 ft 390 kts 201°
2026-04-11 17:39 49.69481 -2.24063 36331 ft 389 kts 201°
2026-04-11 17:40 49.66880 -2.25265 36487 ft 390 kts 201°
2026-04-11 17:40 49.61638 -2.27690 36562 ft 395 kts 201°
2026-04-11 17:40 49.59012 -2.28902 36691 ft 394 kts 201°
2026-04-11 17:41 49.56408 -2.30101 36778 ft 395 kts 201°
2026-04-11 17:41 49.53769 -2.31316 36879 ft 396 kts 201°
2026-04-11 17:41 49.51122 -2.32533 36939 ft 397 kts 201°
2026-04-11 17:42 49.45828 -2.34961 36939 ft 396 kts 201°
2026-04-11 17:42 49.40554 -2.37376 36941 ft 395 kts 201°
2026-04-11 17:43 49.32650 -2.40987 36942 ft 395 kts 201°
2026-04-11 17:43 49.27414 -2.43373 36917 ft 395 kts 201°
2026-04-11 17:44 49.22145 -2.45768 36950 ft 394 kts 201°
2026-04-11 17:44 49.16885 -2.48153 36965 ft 394 kts 201°
2026-04-11 17:45 49.11664 -2.50516 36964 ft 394 kts 201°
2026-04-11 17:45 49.06410 -2.52889 36964 ft 394 kts 201°
2026-04-11 17:46 49.01154 -2.55256 36970 ft 393 kts 201°
2026-04-11 17:46 48.95923 -2.57607 36968 ft 392 kts 201°
2026-04-11 17:47 48.90688 -2.59956 36974 ft 392 kts 201°
2026-04-11 17:47 48.85455 -2.62299 36964 ft 392 kts 201°
2026-04-11 17:48 48.77601 -2.65807 36977 ft 395 kts 201°
2026-04-11 17:49 48.69686 -2.69327 36983 ft 395 kts 201°
2026-04-11 17:50 48.61809 -2.72819 36955 ft 395 kts 201°
2026-04-11 17:50 48.56539 -2.75149 36988 ft 394 kts 201°
2026-04-11 17:51 48.51280 -2.77470 36990 ft 393 kts 201°
2026-04-11 17:51 48.43385 -2.80945 36997 ft 394 kts 201°
2026-04-11 17:52 48.38133 -2.83250 36993 ft 393 kts 201°
2026-04-11 17:52 48.32881 -2.85549 37001 ft 392 kts 201°
2026-04-11 17:53 48.27682 -2.87821 37002 ft 391 kts 201°
2026-04-11 17:53 48.22443 -2.90106 37010 ft 392 kts 201°
2026-04-11 17:54 48.17208 -2.92385 37003 ft 391 kts 201°
2026-04-11 17:54 48.11978 -2.94656 37021 ft 390 kts 201°
2026-04-11 17:55 48.06761 -2.96917 37021 ft 390 kts 201°
2026-04-11 17:55 48.01527 -2.99182 37029 ft 392 kts 201°
2026-04-11 17:56 47.96293 -3.01443 37002 ft 395 kts 201°
2026-04-11 17:56 47.91002 -3.03719 37030 ft 394 kts 201°
2026-04-11 17:57 47.85737 -3.05979 37029 ft 393 kts 201°
2026-04-11 17:57 47.80479 -3.08234 37042 ft 393 kts 201°
2026-04-11 17:58 47.75217 -3.10486 37006 ft 393 kts 201°
2026-04-11 17:58 47.69991 -3.12716 37044 ft 391 kts 201°
2026-04-11 17:59 47.64765 -3.14942 37048 ft 391 kts 201°
2026-04-11 17:59 47.59542 -3.17164 37047 ft 391 kts 201°
2026-04-11 18:00 47.54311 -3.19384 37033 ft 391 kts 201°
2026-04-11 18:00 47.49094 -3.21592 37055 ft 389 kts 200°
2026-04-11 18:01 47.43891 -3.23790 37056 ft 389 kts 200°
2026-04-11 18:01 47.38680 -3.25989 37061 ft 389 kts 200°
2026-04-11 18:02 47.33468 -3.28182 37027 ft 389 kts 200°
2026-04-11 18:02 47.28276 -3.30362 37069 ft 387 kts 200°
2026-04-11 18:03 47.23124 -3.32521 37076 ft 388 kts 200°
2026-04-11 18:03 47.17909 -3.34706 37077 ft 390 kts 200°
2026-04-11 18:04 47.12666 -3.36894 37054 ft 390 kts 200°
2026-04-11 18:04 47.07434 -3.39071 37080 ft 390 kts 200°
2026-04-11 18:05 47.02250 -3.41225 37083 ft 389 kts 200°
2026-04-11 18:05 46.97025 -3.43393 37086 ft 389 kts 200°
2026-04-11 18:06 46.91806 -3.45554 37062 ft 389 kts 200°
2026-04-11 18:06 46.86587 -3.47709 37084 ft 387 kts 200°
2026-04-11 18:07 46.81432 -3.49834 37085 ft 386 kts 200°
2026-04-11 18:07 46.76251 -3.51967 37091 ft 386 kts 200°
2026-04-11 18:08 46.71076 -3.54093 37095 ft 387 kts 200°
2026-04-11 18:08 46.66764 -3.55861 37099 ft 387 kts 200°
2026-04-11 18:09 46.61574 -3.57985 37100 ft 387 kts 200°
2026-04-11 18:09 46.56386 -3.60103 37108 ft 387 kts 200°
2026-04-11 18:10 46.51209 -3.62214 37098 ft 387 kts 200°
2026-04-11 18:10 46.46054 -3.64311 37109 ft 388 kts 200°
2026-04-11 18:11 46.40827 -3.66435 37117 ft 390 kts 200°
2026-04-11 18:11 46.35591 -3.68555 37115 ft 390 kts 200°
2026-04-11 18:12 46.30281 -3.70151 37072 ft 394 kts 193°
2026-04-11 18:12 46.24832 -3.71080 37121 ft 394 kts 191°
2026-04-11 18:13 46.19381 -3.71875 37119 ft 393 kts 191°
2026-04-11 18:13 46.13930 -3.72660 37125 ft 393 kts 191°
2026-04-11 18:14 46.08479 -3.73460 37124 ft 393 kts 191°
2026-04-11 18:14 46.03043 -3.74265 37131 ft 392 kts 191°
2026-04-11 18:15 45.97617 -3.75070 37137 ft 392 kts 191°
2026-04-11 18:15 45.92183 -3.75875 37139 ft 392 kts 191°
2026-04-11 18:16 45.86791 -3.76671 37143 ft 392 kts 191°
2026-04-11 18:16 45.81362 -3.77471 37143 ft 392 kts 191°
2026-04-11 18:17 45.75936 -3.78268 37146 ft 392 kts 191°
2026-04-11 18:17 45.70501 -3.79066 37118 ft 392 kts 191°
2026-04-11 18:18 45.65074 -3.79861 37156 ft 392 kts 191°
2026-04-11 18:18 45.59643 -3.80655 37155 ft 392 kts 191°
2026-04-11 18:19 45.54244 -3.81442 37159 ft 392 kts 191°
2026-04-11 18:19 45.48813 -3.82232 37154 ft 392 kts 191°
2026-04-11 18:20 45.43377 -3.83022 37162 ft 392 kts 191°
2026-04-11 18:20 45.37974 -3.83806 37165 ft 392 kts 191°
2026-04-11 18:21 45.32528 -3.84594 37164 ft 392 kts 191°
2026-04-11 18:21 45.27096 -3.85378 37165 ft 392 kts 191°
2026-04-11 18:22 45.21664 -3.86161 37175 ft 392 kts 191°
2026-04-11 18:22 45.16211 -3.86947 37172 ft 394 kts 191°
2026-04-11 18:23 45.10774 -3.87728 37168 ft 395 kts 191°
2026-04-11 18:23 45.05301 -3.88512 37170 ft 395 kts 191°
2026-04-11 18:24 44.99830 -3.89294 37176 ft 395 kts 191°
2026-04-11 18:24 44.94365 -3.90074 37175 ft 394 kts 191°
2026-04-11 18:25 44.88931 -3.90849 37178 ft 394 kts 191°
2026-04-11 18:26 44.80729 -3.92015 37178 ft 394 kts 191°
2026-04-11 18:26 44.75271 -3.92789 37178 ft 394 kts 191°
2026-04-11 18:27 44.69797 -3.93564 37182 ft 394 kts 190°
2026-04-11 18:27 44.64337 -3.94336 37182 ft 394 kts 190°
2026-04-11 18:28 44.58871 -3.95107 37183 ft 394 kts 190°
2026-04-11 18:28 44.53403 -3.95876 37156 ft 394 kts 190°
2026-04-11 18:29 44.47961 -3.96641 37182 ft 395 kts 190°
2026-04-11 18:29 44.42476 -3.97411 37186 ft 395 kts 190°
2026-04-11 18:30 44.37000 -3.98177 37187 ft 395 kts 190°
2026-04-11 18:30 44.31519 -3.98922 37186 ft 396 kts 189°
2026-04-11 18:31 44.26058 -3.99563 37186 ft 396 kts 189°
2026-04-11 18:31 44.20555 -4.00178 37190 ft 396 kts 189°
2026-04-11 18:32 44.15055 -4.00797 37154 ft 396 kts 189°
2026-04-11 18:32 44.09546 -4.01423 37193 ft 398 kts 189°
2026-04-11 18:33 44.04024 -4.02053 37192 ft 398 kts 189°
2026-04-11 18:33 43.98526 -4.02678 37189 ft 398 kts 189°
2026-04-11 18:34 43.92988 -4.03306 37188 ft 398 kts 188°
2026-04-11 18:34 43.87441 -4.03935 37188 ft 399 kts 188°
2026-04-11 18:35 43.81930 -4.04558 37193 ft 399 kts 188°
2026-04-11 18:35 43.76387 -4.05184 37187 ft 399 kts 188°
2026-04-11 18:36 43.70841 -4.05809 37194 ft 400 kts 188°
2026-04-11 18:36 43.65282 -4.06434 37192 ft 400 kts 188°
2026-04-11 18:37 43.59723 -4.07058 37196 ft 400 kts 188°
2026-04-11 18:37 43.54204 -4.07676 37177 ft 400 kts 188°
2026-04-11 18:38 43.48631 -4.08300 37186 ft 402 kts 188°
2026-04-11 18:38 43.43033 -4.08925 37189 ft 403 kts 188°
2026-04-11 18:39 43.37434 -4.09548 37189 ft 402 kts 188°
2026-04-11 18:39 43.31846 -4.10169 37196 ft 403 kts 188°
2026-04-11 18:40 43.27191 -4.10686 37190 ft 404 kts 188°
2026-04-11 18:40 43.20651 -4.11411 37175 ft 404 kts 188°
2026-04-11 18:41 43.15036 -4.12031 37149 ft 405 kts 188°
2026-04-11 18:41 43.09401 -4.12654 37174 ft 408 kts 188°
2026-04-11 18:42 43.03733 -4.13280 37176 ft 408 kts 188°
2026-04-11 18:42 42.98069 -4.13901 37163 ft 408 kts 188°
2026-04-11 18:43 42.92441 -4.14519 37142 ft 409 kts 188°
2026-04-11 18:43 42.86748 -4.15144 37150 ft 411 kts 188°
2026-04-11 18:44 42.81043 -4.15767 37150 ft 411 kts 188°
2026-04-11 18:44 42.75334 -4.16390 37139 ft 411 kts 188°
2026-04-11 18:45 42.69629 -4.17011 37123 ft 411 kts 188°
2026-04-11 18:45 42.63931 -4.17631 37126 ft 411 kts 188°
2026-04-11 18:46 42.58257 -4.18247 37116 ft 411 kts 188°
2026-04-11 18:46 42.52558 -4.18865 37090 ft 411 kts 188°
2026-04-11 18:47 42.46830 -4.19485 37104 ft 414 kts 188°
2026-04-11 18:47 42.41080 -4.20106 37097 ft 415 kts 188°
2026-04-11 18:48 42.35313 -4.20727 37083 ft 415 kts 188°
2026-04-11 18:48 42.29557 -4.21346 37083 ft 415 kts 187°
2026-04-11 18:49 42.23815 -4.21963 37076 ft 417 kts 187°
2026-04-11 18:49 42.18023 -4.22584 37070 ft 417 kts 187°
2026-04-11 18:50 42.12226 -4.23203 37066 ft 417 kts 187°
2026-04-11 18:50 42.06428 -4.23823 37063 ft 420 kts 187°
2026-04-11 18:51 42.00581 -4.24447 37052 ft 421 kts 187°
2026-04-11 18:51 41.94738 -4.25067 37043 ft 421 kts 187°
2026-04-11 18:52 41.88932 -4.25684 37035 ft 421 kts 186°
2026-04-11 18:52 41.83067 -4.26306 37032 ft 423 kts 186°
2026-04-11 18:53 41.77187 -4.26928 37024 ft 424 kts 186°
2026-04-11 18:53 41.72296 -4.27444 37018 ft 423 kts 186°
2026-04-11 18:54 41.65446 -4.28166 37009 ft 425 kts 186°
2026-04-11 18:54 41.60500 -4.28687 37000 ft 426 kts 186°
2026-04-11 18:55 41.54613 -4.29305 37002 ft 426 kts 186°
2026-04-11 18:55 41.48695 -4.29926 36988 ft 426 kts 186°
2026-04-11 18:56 41.42773 -4.30546 36986 ft 428 kts 186°
2026-04-11 18:56 41.36859 -4.31164 36975 ft 429 kts 186°
2026-04-11 18:57 41.30900 -4.31785 36972 ft 429 kts 186°
2026-04-11 18:57 41.24939 -4.32406 36958 ft 429 kts 186°
2026-04-11 18:58 41.18974 -4.33026 36966 ft 430 kts 186°
2026-04-11 18:58 41.13001 -4.33645 36962 ft 431 kts 186°
2026-04-11 18:59 41.07063 -4.34260 36955 ft 431 kts 186°
2026-04-11 18:59 41.01076 -4.34879 36954 ft 432 kts 185°
2026-04-11 19:00 40.95059 -4.35500 36950 ft 434 kts 185°
2026-04-11 19:00 40.89021 -4.36121 36945 ft 434 kts 185°
2026-04-11 19:01 40.83033 -4.36736 36944 ft 434 kts 185°
2026-04-11 19:01 40.76981 -4.37358 36936 ft 436 kts 185°
2026-04-11 19:02 40.70920 -4.37979 36936 ft 437 kts 185°
2026-04-11 19:02 40.64892 -4.38595 36927 ft 437 kts 185°
2026-04-11 19:03 40.58824 -4.39213 36929 ft 437 kts 185°
2026-04-11 19:03 40.52759 -4.39831 36920 ft 437 kts 185°
2026-04-11 19:04 40.46695 -4.40448 36907 ft 437 kts 185°
2026-04-11 19:04 40.40632 -4.41063 36909 ft 437 kts 185°
2026-04-11 19:05 40.35585 -4.41574 36898 ft 438 kts 185°
2026-04-11 19:05 40.28364 -4.42305 36896 ft 441 kts 185°
2026-04-11 19:06 40.22244 -4.42922 36894 ft 441 kts 185°
2026-04-11 19:06 40.16131 -4.43538 36880 ft 441 kts 185°
2026-04-11 19:07 40.10040 -4.44151 36881 ft 442 kts 185°
2026-04-11 19:07 40.03899 -4.44767 36881 ft 442 kts 185°
2026-04-11 19:08 39.97754 -4.45383 36878 ft 442 kts 185°
2026-04-11 19:08 39.91619 -4.45997 36876 ft 443 kts 185°
2026-04-11 19:09 39.85499 -4.46608 36879 ft 444 kts 185°
2026-04-11 19:09 39.79325 -4.47223 36881 ft 444 kts 185°
2026-04-11 19:10 39.73160 -4.47836 36881 ft 444 kts 185°
2026-04-11 19:10 39.66997 -4.48448 36880 ft 445 kts 184°
2026-04-11 19:11 39.60809 -4.49062 36883 ft 446 kts 184°
2026-04-11 19:11 39.54626 -4.49673 36880 ft 446 kts 184°
2026-04-11 19:12 39.48435 -4.50285 36873 ft 446 kts 184°
2026-04-11 19:12 39.42232 -4.50896 36878 ft 448 kts 184°
2026-04-11 19:13 39.36005 -4.51509 36875 ft 449 kts 184°
2026-04-11 19:13 39.29806 -4.52118 36866 ft 449 kts 184°
2026-04-11 19:14 39.23582 -4.52729 36865 ft 449 kts 184°
2026-04-11 19:14 39.17328 -4.53341 36864 ft 451 kts 184°
2026-04-11 19:15 39.11076 -4.53952 36864 ft 451 kts 184°
2026-04-11 19:15 39.04815 -4.54563 36869 ft 451 kts 184°
2026-04-11 19:16 38.98560 -4.55172 36862 ft 451 kts 184°
2026-04-11 19:16 38.92331 -4.55870 36863 ft 452 kts 187°
2026-04-11 19:17 38.86111 -4.57094 36862 ft 452 kts 189°
2026-04-11 19:17 38.79900 -4.58477 36864 ft 451 kts 190°
2026-04-11 19:18 38.73701 -4.59823 36866 ft 452 kts 189°
2026-04-11 19:18 38.67521 -4.61121 36867 ft 452 kts 189°
2026-04-11 19:19 38.61300 -4.62409 36869 ft 453 kts 189°
2026-04-11 19:19 38.55075 -4.63694 36860 ft 452 kts 189°
2026-04-11 19:20 38.48845 -4.64981 36868 ft 454 kts 189°
2026-04-11 19:20 38.42646 -4.66259 36866 ft 454 kts 189°
2026-04-11 19:21 38.36398 -4.67546 36867 ft 454 kts 189°
2026-04-11 19:21 38.30161 -4.68828 36868 ft 454 kts 189°
2026-04-11 19:22 38.23922 -4.70108 36863 ft 454 kts 190°
2026-04-11 19:22 38.17683 -4.71386 36864 ft 454 kts 189°
2026-04-11 19:23 38.11443 -4.72662 36863 ft 454 kts 189°
2026-04-11 19:23 38.05190 -4.73939 36864 ft 455 kts 189°
2026-04-11 19:24 37.98975 -4.75206 36865 ft 455 kts 189°
2026-04-11 19:24 37.92708 -4.76481 36882 ft 455 kts 189°
2026-04-11 19:25 37.86456 -4.77759 36883 ft 455 kts 191°
2026-04-11 19:25 37.80456 -4.80253 36885 ft 457 kts 208°
2026-04-11 19:26 37.75392 -4.85079 36885 ft 457 kts 229°
2026-04-11 19:26 37.71978 -4.91761 36884 ft 456 kts 245°
2026-04-11 19:27 37.69394 -4.99099 36883 ft 456 kts 248°
2026-04-11 19:27 37.66951 -5.06456 36878 ft 452 kts 248°
2026-04-11 19:28 37.64495 -5.13743 36879 ft 452 kts 247°
2026-04-11 19:28 37.61990 -5.21039 36876 ft 452 kts 247°
2026-04-11 19:29 37.59485 -5.28275 36875 ft 452 kts 247°
2026-04-11 19:29 37.56959 -5.35558 36883 ft 452 kts 247°
2026-04-11 19:30 37.54458 -5.42757 36877 ft 450 kts 247°
2026-04-11 19:30 37.51937 -5.49999 36882 ft 450 kts 247°
2026-04-11 19:31 37.49430 -5.57186 36880 ft 449 kts 247°
2026-04-11 19:31 37.46908 -5.64396 36880 ft 450 kts 247°
2026-04-11 19:32 37.44394 -5.71568 36877 ft 450 kts 247°
2026-04-11 19:32 37.42331 -5.78994 36887 ft 450 kts 256°
2026-04-11 19:33 37.40869 -5.86642 36884 ft 450 kts 258°
2026-04-11 19:33 37.39515 -5.94335 36880 ft 450 kts 258°
2026-04-11 19:34 37.38175 -6.01977 36883 ft 450 kts 258°
2026-04-11 19:34 37.36808 -6.09657 36886 ft 450 kts 258°
2026-04-11 19:35 37.35426 -6.17339 36881 ft 449 kts 257°
2026-04-11 19:35 37.34041 -6.24997 36885 ft 449 kts 257°
2026-04-11 19:36 37.32661 -6.32604 36888 ft 449 kts 257°
2026-04-11 19:36 37.31269 -6.40249 36889 ft 449 kts 257°
2026-04-11 19:37 37.29170 -6.51715 36897 ft 446 kts 258°
2026-04-11 19:37 37.27777 -6.59278 36901 ft 443 kts 258°
2026-04-11 19:38 37.26616 -6.65553 36906 ft 443 kts 258°
2026-04-11 19:38 37.25215 -6.73098 36906 ft 443 kts 258°
2026-04-11 19:39 37.23812 -6.80628 36913 ft 443 kts 258°
2026-04-11 19:39 37.22407 -6.88155 36916 ft 443 kts 258°
2026-04-11 19:40 37.21008 -6.95613 36921 ft 440 kts 257°
2026-04-11 19:40 37.19600 -7.03099 36932 ft 441 kts 258°
2026-04-11 19:41 37.18185 -7.10572 36943 ft 440 kts 257°
2026-04-11 19:41 37.16757 -7.18069 36935 ft 440 kts 257°
2026-04-11 19:42 37.15331 -7.25548 36941 ft 442 kts 257°
2026-04-11 19:42 37.13898 -7.33038 36946 ft 442 kts 257°
2026-04-11 19:43 37.12480 -7.40489 36960 ft 442 kts 258°
2026-04-11 19:43 37.11097 -7.47995 36955 ft 442 kts 258°
2026-04-11 19:44 37.09723 -7.55502 36953 ft 442 kts 258°
2026-04-11 19:44 37.08342 -7.63003 36961 ft 442 kts 258°
2026-04-11 19:45 37.06956 -7.70474 36954 ft 439 kts 258°
2026-04-11 19:45 37.05568 -7.77927 36948 ft 440 kts 258°
2026-04-11 19:46 37.04178 -7.85364 36940 ft 439 kts 258°
2026-04-11 19:46 37.02778 -7.92822 36947 ft 439 kts 258°
2026-04-11 19:47 37.01377 -8.00263 36939 ft 440 kts 258°
2026-04-11 19:47 36.99979 -8.07662 36937 ft 439 kts 258°
2026-04-11 19:48 36.98563 -8.15123 36944 ft 440 kts 258°
2026-04-11 19:48 36.97148 -8.22555 36966 ft 439 kts 258°
2026-04-11 19:49 36.95728 -8.29989 36983 ft 439 kts 258°
2026-04-11 19:49 36.94304 -8.37411 37009 ft 440 kts 258°
2026-04-11 19:50 36.92875 -8.44838 37009 ft 438 kts 258°
2026-04-11 19:50 36.91460 -8.52156 37025 ft 435 kts 258°
2026-04-11 19:51 36.90037 -8.59498 37024 ft 433 kts 258°
2026-04-11 19:51 36.88611 -8.66829 37040 ft 434 kts 258°
2026-04-11 19:52 36.87190 -8.74109 37035 ft 434 kts 258°
2026-04-11 19:52 36.85759 -8.81410 37049 ft 430 kts 258°
2026-04-11 19:53 36.84333 -8.88665 37056 ft 432 kts 258°
2026-04-11 19:53 36.82896 -8.95950 37064 ft 430 kts 258°
2026-04-11 19:54 36.81458 -9.03214 37057 ft 432 kts 258°
2026-04-11 19:54 36.80027 -9.10418 37071 ft 430 kts 258°
2026-04-11 19:55 36.78582 -9.17668 37075 ft 428 kts 259°
2026-04-11 19:55 36.77143 -9.24859 37082 ft 428 kts 258°
2026-04-11 19:56 36.75695 -9.32078 37085 ft 428 kts 258°
2026-04-11 19:56 36.74252 -9.39247 37095 ft 430 kts 258°
2026-04-11 19:57 36.72799 -9.46437 37091 ft 426 kts 258°
2026-04-11 19:57 36.71338 -9.53644 37097 ft 429 kts 258°
2026-04-11 19:58 36.69874 -9.60843 37096 ft 428 kts 257°
2026-04-11 19:58 36.68401 -9.68063 37097 ft 429 kts 258°
2026-04-11 19:59 36.66937 -9.75213 37121 ft 430 kts 258°
2026-04-11 19:59 36.65456 -9.82419 37116 ft 428 kts 258°
2026-04-11 20:00 36.63973 -9.89613 37130 ft 429 kts 258°
2026-04-11 20:00 36.62487 -9.96803 37125 ft 428 kts 257°
2026-04-11 20:01 36.60993 -10.04004 37135 ft 429 kts 258°
2026-04-11 20:01 36.59498 -10.11184 37140 ft 429 kts 257°
2026-04-11 20:02 36.58006 -10.18330 37137 ft 428 kts 257°
2026-04-11 20:02 36.56504 -10.25500 37152 ft 429 kts 257°
2026-04-11 20:03 36.54995 -10.32675 37155 ft 428 kts 257°
2026-04-11 20:03 36.53478 -10.39870 37147 ft 430 kts 257°
2026-04-11 20:04 36.51963 -10.47030 37162 ft 427 kts 257°
2026-04-11 20:04 36.50445 -10.54180 37163 ft 426 kts 257°
2026-04-11 20:05 36.48928 -10.61306 37172 ft 427 kts 257°
2026-04-11 20:05 36.47404 -10.68446 37170 ft 427 kts 257°
2026-04-11 20:06 36.45873 -10.75589 37179 ft 428 kts 257°
2026-04-11 20:06 36.44344 -10.82701 37177 ft 428 kts 257°
2026-04-11 20:07 36.42804 -10.89846 37186 ft 428 kts 257°
2026-04-11 20:07 36.41257 -10.96993 37188 ft 428 kts 257°
2026-04-11 20:08 36.39707 -11.04141 37190 ft 429 kts 257°
2026-04-11 20:08 36.38152 -11.11285 37191 ft 429 kts 257°
2026-04-11 20:09 36.36599 -11.18393 37199 ft 429 kts 257°
2026-04-11 20:09 36.35032 -11.25549 37201 ft 429 kts 257°
2026-04-11 20:10 36.34248 -11.29120 37202 ft 429 kts 257°
2026-04-11 20:10 36.33983 -11.30323 37201 ft 429 kts 257°
2026-04-11 20:11 36.30321 -11.46920 37208 ft 428 kts 257°
2026-04-11 20:11 36.28741 -11.54044 37208 ft 428 kts 257°
2026-04-11 20:12 36.27156 -11.61171 37211 ft 428 kts 257°
2026-04-11 20:12 36.25565 -11.68301 37210 ft 428 kts 257°
2026-04-11 20:13 36.23972 -11.75416 37219 ft 428 kts 257°
2026-04-11 20:13 36.22383 -11.82496 37219 ft 429 kts 257°
2026-04-11 20:14 36.20780 -11.89615 37218 ft 429 kts 257°
2026-04-11 20:14 36.19174 -11.96723 37225 ft 429 kts 257°
2026-04-11 20:15 36.17562 -12.03836 37225 ft 429 kts 257°
2026-04-11 20:15 36.15947 -12.10943 37232 ft 428 kts 257°
2026-04-11 20:16 36.14341 -12.17992 37233 ft 427 kts 256°
2026-04-11 20:16 36.12723 -12.25069 37238 ft 427 kts 256°
2026-04-11 20:17 36.11103 -12.32137 37238 ft 427 kts 256°
2026-04-11 20:17 36.09479 -12.39194 37245 ft 425 kts 256°
2026-04-11 20:18 36.07871 -12.46166 37243 ft 423 kts 256°
2026-04-11 20:18 36.06187 -12.53146 37242 ft 424 kts 250°
2026-04-11 20:19 36.04828 -12.56393 37246 ft 429 kts 239°
2026-04-11 20:19 36.02972 -12.59314 37248 ft 432 kts 233°
2026-04-11 20:19 35.98969 -12.64818 37254 ft 434 kts 232°
2026-04-11 20:20 35.94885 -12.70322 37252 ft 435 kts 232°
2026-04-11 20:20 35.90791 -12.75830 37252 ft 435 kts 232°
2026-04-11 20:21 35.86699 -12.81328 37257 ft 435 kts 232°
2026-04-11 20:21 35.82618 -12.86803 37257 ft 435 kts 231°
2026-04-11 20:22 35.78519 -12.92293 37262 ft 435 kts 232°
2026-04-11 20:22 35.74431 -12.97759 37259 ft 432 kts 232°
2026-04-11 20:23 35.70357 -13.03198 37262 ft 432 kts 232°
2026-04-11 20:23 35.66302 -13.08605 37265 ft 432 kts 232°
2026-04-11 20:24 35.62225 -13.14030 37257 ft 432 kts 231°
2026-04-11 20:24 35.58142 -13.19454 37266 ft 432 kts 231°
2026-04-11 20:25 35.54744 -13.23963 37266 ft 433 kts 231°
2026-04-11 20:25 35.50649 -13.29387 37254 ft 433 kts 231°
2026-04-11 20:26 35.46560 -13.34795 37264 ft 430 kts 231°
2026-04-11 20:26 35.42509 -13.40144 37270 ft 430 kts 231°
2026-04-11 20:27 35.38430 -13.45522 37274 ft 430 kts 231°
2026-04-11 20:27 35.34346 -13.50899 37273 ft 430 kts 231°
2026-04-11 20:28 35.30262 -13.56265 37280 ft 431 kts 231°
2026-04-11 20:28 35.26196 -13.61601 37278 ft 431 kts 231°
2026-04-11 20:29 35.22094 -13.66974 37282 ft 431 kts 231°
2026-04-11 20:29 35.18000 -13.72329 37280 ft 431 kts 231°
2026-04-11 20:30 35.13897 -13.77687 37277 ft 431 kts 231°
2026-04-11 20:30 35.09797 -13.83033 37288 ft 431 kts 231°
2026-04-11 20:31 35.05694 -13.88374 37284 ft 432 kts 231°
2026-04-11 20:31 35.01600 -13.93695 37286 ft 433 kts 231°
2026-04-11 20:32 34.97463 -13.99064 37288 ft 433 kts 231°
2026-04-11 20:32 34.93326 -14.04424 37262 ft 434 kts 231°
2026-04-11 20:33 34.89200 -14.09759 37288 ft 431 kts 231°
2026-04-11 20:33 34.85113 -14.15038 37296 ft 430 kts 231°
2026-04-11 20:34 34.81005 -14.20336 37291 ft 430 kts 231°
2026-04-11 20:34 34.76890 -14.25635 37292 ft 431 kts 231°
2026-04-11 20:35 34.72762 -14.30943 37294 ft 432 kts 231°
2026-04-11 20:35 34.68625 -14.36252 37300 ft 432 kts 231°
2026-04-11 20:36 34.64485 -14.41558 37296 ft 432 kts 231°
2026-04-11 20:36 34.60367 -14.46826 37294 ft 431 kts 231°
2026-04-11 20:37 34.56231 -14.52110 37298 ft 431 kts 231°
2026-04-11 20:37 34.52097 -14.57384 37298 ft 431 kts 231°
2026-04-11 20:38 34.47959 -14.62656 37301 ft 432 kts 231°
2026-04-11 20:38 34.43829 -14.67907 37301 ft 433 kts 231°
2026-04-11 20:39 34.39667 -14.73191 37297 ft 433 kts 231°
2026-04-11 20:39 34.35501 -14.78473 37298 ft 433 kts 231°
2026-04-11 20:40 34.33427 -14.81098 36977 ft 430 kts 231°
2026-04-11 20:40 34.31361 -14.83712 36276 ft 431 kts 230°
2026-04-11 20:40 34.29281 -14.86345 35511 ft 435 kts 230°
2026-04-11 20:40 34.27209 -14.88963 34795 ft 437 kts 230°
2026-04-11 20:41 34.25095 -14.91633 34096 ft 439 kts 229°
2026-04-11 20:41 34.22978 -14.94303 33289 ft 440 kts 229°
2026-04-11 20:41 34.20846 -14.96990 32363 ft 445 kts 229°
2026-04-11 20:41 34.18693 -14.99703 31438 ft 450 kts 229°
2026-04-11 20:42 34.16513 -15.02447 30594 ft 454 kts 229°
2026-04-11 20:42 34.14312 -15.05213 29760 ft 454 kts 229°
2026-04-11 20:42 34.12134 -15.07947 29136 ft 450 kts 229°
2026-04-11 20:42 34.09969 -15.10664 28452 ft 448 kts 229°
2026-04-11 20:43 34.07838 -15.13336 27686 ft 447 kts 230°
2026-04-11 20:43 34.05678 -15.16045 26815 ft 450 kts 230°
2026-04-11 20:43 34.03493 -15.18783 25885 ft 454 kts 230°
2026-04-11 20:43 34.01291 -15.21541 24925 ft 459 kts 229°
2026-04-11 20:44 33.99065 -15.24326 24058 ft 463 kts 230°
2026-04-11 20:44 33.96831 -15.27117 23218 ft 462 kts 229°
2026-04-11 20:44 33.94605 -15.29894 22476 ft 458 kts 229°
2026-04-11 20:44 33.92403 -15.32639 21775 ft 454 kts 230°
2026-04-11 20:45 33.90212 -15.35369 21076 ft 450 kts 229°
2026-04-11 20:45 33.88048 -15.38063 20553 ft 446 kts 229°
2026-04-11 20:45 33.85891 -15.40748 20336 ft 446 kts 229°
2026-04-11 20:45 33.83762 -15.43398 20305 ft 446 kts 229°
2026-04-11 20:46 33.81601 -15.46085 20310 ft 446 kts 230°
2026-04-11 20:46 33.79436 -15.48773 20307 ft 446 kts 229°
2026-04-11 20:46 33.77282 -15.51446 20313 ft 445 kts 229°
2026-04-11 20:47 33.72965 -15.56797 20307 ft 446 kts 229°
2026-04-11 20:47 33.70798 -15.59479 20307 ft 447 kts 229°
2026-04-11 20:47 33.68630 -15.62162 20310 ft 448 kts 229°
2026-04-11 20:47 33.66454 -15.64852 20306 ft 448 kts 229°
2026-04-11 20:48 33.64282 -15.67534 20312 ft 449 kts 229°
2026-04-11 20:48 33.62104 -15.70223 20314 ft 449 kts 229°
2026-04-11 20:48 33.59922 -15.72912 20314 ft 450 kts 229°
2026-04-11 20:48 33.57737 -15.75605 20314 ft 450 kts 229°
2026-04-11 20:49 33.55571 -15.78256 20311 ft 450 kts 228°
2026-04-11 20:49 33.53341 -15.80899 20296 ft 449 kts 228°
2026-04-11 20:49 33.51121 -15.83500 19785 ft 444 kts 227°
2026-04-11 20:49 33.48916 -15.86081 19017 ft 443 kts 227°
2026-04-11 20:50 33.46709 -15.88664 18197 ft 443 kts 227°
2026-04-11 20:50 33.44510 -15.91236 17500 ft 438 kts 227°
2026-04-11 20:50 33.42339 -15.93774 16766 ft 435 kts 227°
2026-04-11 20:50 33.40183 -15.96293 16037 ft 430 kts 227°
2026-04-11 20:51 33.38063 -15.98769 15107 ft 423 kts 227°
2026-04-11 20:51 33.35971 -16.01210 14104 ft 419 kts 227°
2026-04-11 20:51 33.33899 -16.03629 13011 ft 414 kts 227°
2026-04-11 20:51 33.31865 -16.06000 11789 ft 413 kts 227°
2026-04-11 20:52 33.29809 -16.08397 10623 ft 412 kts 227°
2026-04-11 20:52 33.27765 -16.10777 9558 ft 406 kts 226°
2026-04-11 20:52 33.25754 -16.13115 8461 ft 400 kts 227°
2026-04-11 20:52 33.23778 -16.15411 7497 ft 391 kts 227°
2026-04-11 20:53 33.21872 -16.17621 7033 ft 370 kts 227°
2026-04-11 20:53 33.20082 -16.19693 6684 ft 347 kts 228°
2026-04-11 20:53 33.18401 -16.21640 6353 ft 327 kts 228°
2026-04-11 20:53 33.16815 -16.23479 6054 ft 309 kts 228°
2026-04-11 20:54 33.15316 -16.25217 5758 ft 293 kts 228°
2026-04-11 20:54 33.13870 -16.26896 5312 ft 286 kts 229°
2026-04-11 20:54 33.12453 -16.28542 4848 ft 280 kts 229°
2026-04-11 20:54 33.11068 -16.30147 4378 ft 275 kts 229°
2026-04-11 20:55 33.09718 -16.31713 4050 ft 274 kts 229°
2026-04-11 20:55 33.08343 -16.33307 3998 ft 277 kts 229°
2026-04-11 20:55 33.06951 -16.34920 3977 ft 280 kts 229°
2026-04-11 20:55 33.05559 -16.36529 3989 ft 277 kts 229°
2026-04-11 20:56 33.04180 -16.38122 4017 ft 275 kts 228°
2026-04-11 20:56 33.02802 -16.39713 4015 ft 276 kts 229°
2026-04-11 20:56 33.01423 -16.41303 4020 ft 275 kts 229°
2026-04-11 20:56 33.00048 -16.42889 4017 ft 275 kts 229°
2026-04-11 20:57 32.98677 -16.44471 4020 ft 274 kts 229°
2026-04-11 20:57 32.97309 -16.46047 4021 ft 273 kts 229°
2026-04-11 20:57 32.95961 -16.47600 4019 ft 273 kts 229°
2026-04-11 20:57 32.94593 -16.49176 4020 ft 274 kts 229°
2026-04-11 20:58 32.93219 -16.50749 4016 ft 274 kts 227°
2026-04-11 20:58 32.91812 -16.52287 4015 ft 275 kts 226°
2026-04-11 20:58 32.90391 -16.53811 4014 ft 274 kts 226°
2026-04-11 20:58 32.88971 -16.55329 4013 ft 275 kts 226°
2026-04-11 20:59 32.87543 -16.56853 4009 ft 275 kts 226°
2026-04-11 20:59 32.86117 -16.58362 3978 ft 275 kts 224°
2026-04-11 20:59 32.84511 -16.59606 3503 ft 277 kts 210°
2026-04-11 20:59 32.82763 -16.60570 3102 ft 277 kts 206°
2026-04-11 21:00 32.80986 -16.61484 3006 ft 280 kts 205°
2026-04-11 21:00 32.79193 -16.62405 3004 ft 282 kts 205°
2026-04-11 21:00 32.77410 -16.63324 2978 ft 271 kts 205°
2026-04-11 21:00 32.75741 -16.64186 2874 ft 258 kts 206°
2026-04-11 21:01 32.74127 -16.65024 2598 ft 250 kts 205°
2026-04-11 21:01 32.72566 -16.65837 2393 ft 236 kts 205°
2026-04-11 21:01 32.71106 -16.66596 2135 ft 224 kts 205°
2026-04-11 21:01 32.69734 -16.67311 1981 ft 205 kts 205°
2026-04-11 21:02 32.68493 -16.67955 1973 ft 186 kts 206°
2026-04-11 21:02 32.67351 -16.68549 2005 ft 170 kts 206°
2026-04-11 21:02 32.66312 -16.69091 1987 ft 162 kts 206°
2026-04-11 21:02 32.65283 -16.69629 1992 ft 161 kts 207°
2026-04-11 21:03 32.64252 -16.70169 2009 ft 161 kts 206°
2026-04-11 21:03 32.63270 -16.70759 1912 ft 155 kts 213°
2026-04-11 21:03 32.62416 -16.71525 1881 ft 153 kts 227°
2026-04-11 21:03 32.61733 -16.72464 1876 ft 149 kts 240°
2026-04-11 21:04 32.61240 -16.73532 1869 ft 146 kts 254°
2026-04-11 21:04 32.60950 -16.74669 1863 ft 145 kts 267°
2026-04-11 21:04 32.60858 -16.75839 1862 ft 140 kts 279°
2026-04-11 21:04 32.60956 -16.76965 1788 ft 135 kts 289°
2026-04-11 21:05 32.61232 -16.78022 1706 ft 132 kts 303°
2026-04-11 21:05 32.61706 -16.78933 1622 ft 129 kts 317°
2026-04-11 21:05 32.62356 -16.79648 1505 ft 127 kts 330°
2026-04-11 21:05 32.63133 -16.80130 1402 ft 124 kts 346°
2026-04-11 21:06 32.63961 -16.80349 1209 ft 122 kts 359°
2026-04-11 21:06 32.64808 -16.80368 1073 ft 123 kts
2026-04-11 21:06 32.65657 -16.80357 863 ft 121 kts
2026-04-11 21:06 32.66482 -16.80312 667 ft 118 kts
2026-04-11 21:07 32.67278 -16.80031 578 ft 122 kts 21°
2026-04-11 21:07 32.68012 -16.79528 471 ft 121 kts 34°
2026-04-11 21:07 32.68622 -16.78830 335 ft 123 kts 41°
2026-04-11 21:07 32.69214 -16.78111 205 ft 113 kts 39°
2026-04-11 21:08 32.69757 -16.77450 493 ft 121 kts 41°
2026-04-11 21:08 32.70367 -16.76702 1215 ft 134 kts 43°
2026-04-11 21:08 32.71065 -16.75843 1831 ft 157 kts 44°
2026-04-11 21:08 32.71804 -16.74806 2182 ft 163 kts 54°
2026-04-11 21:09 32.72270 -16.73665 2115 ft 148 kts 66°
2026-04-11 21:09 32.72420 -16.72506 1977 ft 136 kts 89°
2026-04-11 21:09 32.72122 -16.71455 1976 ft 139 kts 120°
2026-04-11 21:09 32.71290 -16.70822 2000 ft 148 kts 163°
2026-04-11 21:10 32.70269 -16.70654 1992 ft 149 kts 173°
2026-04-11 21:10 32.69218 -16.70570 1995 ft 154 kts 174°
2026-04-11 21:10 32.68153 -16.70492 2002 ft 153 kts 174°
2026-04-11 21:10 32.67089 -16.70413 1983 ft 154 kts 174°
2026-04-11 21:11 32.66016 -16.70329 1999 ft 154 kts 174°
2026-04-11 21:11 32.64945 -16.70244 2002 ft 154 kts 176°
2026-04-11 21:11 32.63893 -16.70390 1980 ft 152 kts 201°
2026-04-11 21:11 32.62967 -16.70952 1986 ft 152 kts 217°
2026-04-11 21:12 32.62171 -16.71773 1994 ft 151 kts 232°
2026-04-11 21:12 32.61547 -16.72771 2002 ft 149 kts 246°
2026-04-11 21:12 32.61118 -16.73874 1949 ft 145 kts 257°
2026-04-11 21:12 32.60893 -16.75032 1872 ft 143 kts 270°
2026-04-11 21:13 32.60866 -16.76187 1840 ft 138 kts 280°
2026-04-11 21:13 32.60948 -16.76925 1788 ft 135 kts 286°
2026-04-11 21:13 32.61217 -16.77987 1703 ft 134 kts 300°
2026-04-11 21:13 32.61691 -16.78911 1640 ft 128 kts 317°
2026-04-11 21:14 32.62562 -16.79808 1471 ft 123 kts 336°
2026-04-11 21:14 32.63328 -16.80205 1323 ft 120 kts 348°
2026-04-11 21:14 32.63873 -16.80337 1213 ft 121 kts 359°
2026-04-11 21:14 32.64710 -16.80367 1109 ft 120 kts
2026-04-11 21:15 32.65550 -16.80362 942 ft 120 kts
2026-04-11 21:15 32.66384 -16.80312 778 ft 120 kts
2026-04-11 21:15 32.67192 -16.80058 657 ft 121 kts 20°
2026-04-11 21:15 32.67922 -16.79570 516 ft 120 kts 33°
2026-04-11 21:16 32.68542 -16.78905 356 ft 121 kts 40°
2026-04-11 21:16 32.69146 -16.78196 180 ft 112 kts 44°
2026-04-11 21:16 32.69499 -16.77784 179 ft 29 kts 45°
2026-04-11 21:16 32.69628 -16.77633 179 ft 25 kts 43°
2026-04-11 21:17 32.69749 -16.77493 179 ft 23 kts 45°
2026-04-11 21:17 32.69861 -16.77363 179 ft 22 kts 44°
2026-04-11 21:17 32.69954 -16.77235 179 ft 19 kts 81°
2026-04-11 21:17 32.69866 -16.77180 179 ft 16 kts 183°
2026-04-11 21:18 32.69785 -16.77242 179 ft 14 kts 225°
2026-04-11 21:18 32.69705 -16.77342 179 ft 21 kts 226°
2026-04-11 21:18 32.69607 -16.77465 179 ft 20 kts 227°
2026-04-11 21:18 32.69512 -16.77586 179 ft 20 kts 227°
2026-04-11 21:19 32.69448 -16.77635 179 ft 4 kts 130°
2026-04-11 21:19 32.69414 -16.77595 179 ft 8 kts 138°
2026-04-11 21:19 32.69410 -16.77590 179 ft 0 kts 138°